createdAt,value
2019-04-11T00:00:42.235Z,6.00
2019-04-11T00:03:09.208Z,6.00
2019-04-11T00:05:35.643Z,6.00
2019-04-11T00:08:01.895Z,5.90
2019-04-11T00:10:29.170Z,5.90
2019-04-11T00:12:55.469Z,5.90
2019-04-11T00:15:21.665Z,5.90
2019-04-11T00:17:48.171Z,5.90
2019-04-11T00:20:14.263Z,5.90
2019-04-11T00:22:41.509Z,5.90
2019-04-11T00:25:09.419Z,5.80
2019-04-11T00:27:37.121Z,5.80
2019-04-11T00:30:08.079Z,5.80
2019-04-11T00:32:35.794Z,5.80
2019-04-11T00:35:04.056Z,5.80
2019-04-11T00:37:30.176Z,5.80
2019-04-11T00:39:56.404Z,5.70
2019-04-11T00:42:22.851Z,5.70
2019-04-11T00:44:49.551Z,5.70
2019-04-11T00:47:15.829Z,5.70
2019-04-11T00:49:42.922Z,5.60
2019-04-11T00:52:09.438Z,5.70
2019-04-11T00:54:35.574Z,5.70
2019-04-11T00:57:01.760Z,5.60
2019-04-11T00:59:30.093Z,5.60
2019-04-11T01:01:56.898Z,5.60
2019-04-11T01:04:23.471Z,5.60
2019-04-11T01:06:50.170Z,5.60
2019-04-11T01:09:16.398Z,5.60
2019-04-11T01:11:42.527Z,5.60
2019-04-11T01:14:09.877Z,5.60
2019-04-11T01:16:38.897Z,5.60
2019-04-11T01:19:06.608Z,5.60
2019-04-11T01:21:33.520Z,5.50
2019-04-11T01:23:59.658Z,5.50
2019-04-11T01:26:27.162Z,5.50
2019-04-11T01:28:53.872Z,5.50
2019-04-11T01:31:25.283Z,5.50
2019-04-11T01:33:51.837Z,5.50
2019-04-11T01:36:18.528Z,5.40
2019-04-11T01:38:49.525Z,5.40
2019-04-11T01:41:15.724Z,5.40
2019-04-11T01:43:52.707Z,5.40
2019-04-11T01:46:10.185Z,5.40
2019-04-11T01:48:41.744Z,5.30
2019-04-11T01:51:07.959Z,5.30
2019-04-11T01:53:35.167Z,5.30
2019-04-11T01:56:01.507Z,5.30
2019-04-11T01:58:28.803Z,5.20
2019-04-11T02:00:56.924Z,5.20
2019-04-11T02:03:25.513Z,5.20
2019-04-11T02:05:51.727Z,5.20
2019-04-11T02:08:17.938Z,5.20
2019-04-11T02:10:45.237Z,5.10
2019-04-11T02:13:11.969Z,5.10
2019-04-11T02:15:38.697Z,5.10
2019-04-11T02:18:05.439Z,5.10
2019-04-11T02:20:32.008Z,5.10
2019-04-11T02:23:09.362Z,5.10
2019-04-11T02:25:40.742Z,5.00
2019-04-11T02:28:08.570Z,5.00
2019-04-11T02:30:38.716Z,5.00
2019-04-11T02:33:07.098Z,5.00
2019-04-11T02:35:32.963Z,5.00
2019-04-11T02:37:59.842Z,5.00
2019-04-11T02:40:27.746Z,5.00
2019-04-11T02:42:54.888Z,4.90
2019-04-11T02:45:31.253Z,4.90
2019-04-11T02:47:51.823Z,4.90
2019-04-11T02:50:21.011Z,4.90
2019-04-11T02:52:47.225Z,4.90
2019-04-11T02:55:14.562Z,4.80
2019-04-11T02:57:41.395Z,4.80
2019-04-11T03:00:11.163Z,4.80
2019-04-11T03:02:39.496Z,4.80
2019-04-11T03:05:07.084Z,4.80
2019-04-11T03:07:36.023Z,4.70
2019-04-11T03:10:04.940Z,4.70
2019-04-11T03:12:33.665Z,4.70
2019-04-11T03:15:14.958Z,4.70
2019-04-11T03:17:34.141Z,4.70
2019-04-11T03:20:09.356Z,4.70
2019-04-11T03:22:25.257Z,4.60
2019-04-11T03:24:53.494Z,4.60
2019-04-11T03:27:22.407Z,4.60
2019-04-11T03:29:49.380Z,4.60
2019-04-11T03:33:07.781Z,4.60
2019-04-11T03:35:50.886Z,4.50
2019-04-11T03:37:38.535Z,4.50
2019-04-11T03:40:00.742Z,4.50
2019-04-11T03:42:21.669Z,4.50
2019-04-11T03:44:42.742Z,4.40
2019-04-11T03:47:20.310Z,4.40
2019-04-11T03:49:43.364Z,4.40
2019-04-11T03:52:02.948Z,4.40
2019-04-11T03:54:31.684Z,4.40
2019-04-11T03:56:59.185Z,4.40
2019-04-11T03:59:27.013Z,4.40
2019-04-11T04:01:54.259Z,4.30
2019-04-11T04:04:22.298Z,4.30
2019-04-11T04:06:50.332Z,4.30
2019-04-11T04:09:18.599Z,4.30
2019-04-11T04:11:49.151Z,4.30
2019-04-11T04:14:19.391Z,4.20
2019-04-11T04:16:50.489Z,4.20
2019-04-11T04:19:30.700Z,4.20
2019-04-11T04:22:15.778Z,4.20
2019-04-11T04:24:44.664Z,4.20
2019-04-11T04:27:13.032Z,4.20
2019-04-11T04:29:41.302Z,4.20
2019-04-11T04:32:08.595Z,4.20
2019-04-11T04:34:36.025Z,4.20
2019-04-11T04:37:03.619Z,4.20
2019-04-11T04:39:32.106Z,4.10
2019-04-11T04:42:05.854Z,4.10
2019-04-11T04:44:26.580Z,4.10
2019-04-11T04:47:09.386Z,4.10
2019-04-11T04:49:21.383Z,4.10
2019-04-11T04:51:48.235Z,4.10
2019-04-11T04:54:14.457Z,4.20
2019-04-11T04:56:41.932Z,4.10
2019-04-11T04:59:10.060Z,4.20
2019-04-11T05:01:37.369Z,4.20
2019-04-11T05:04:06.688Z,4.10
2019-04-11T05:06:34.453Z,4.20
2019-04-11T05:09:00.943Z,4.10
2019-04-11T05:11:28.382Z,4.10
2019-04-11T05:13:54.661Z,4.10
2019-04-11T05:16:41.801Z,4.10
2019-04-11T05:19:08.538Z,4.20
2019-04-11T05:21:35.159Z,4.20
2019-04-11T05:24:01.995Z,4.20
2019-04-11T05:26:28.547Z,4.20
2019-04-11T05:28:55.183Z,4.20
2019-04-11T05:31:22.616Z,4.30
2019-04-11T05:33:49.730Z,4.30
2019-04-11T05:36:16.585Z,4.30
2019-04-11T05:38:42.865Z,4.30
2019-04-11T05:41:12.105Z,4.30
2019-04-11T05:43:39.797Z,4.30
2019-04-11T05:46:22.877Z,4.30
2019-04-11T05:48:35.320Z,4.30
2019-04-11T05:51:01.604Z,4.30
2019-04-11T05:53:27.914Z,4.30
2019-04-11T05:55:55.691Z,4.40
2019-04-11T05:58:21.969Z,4.40
2019-04-11T06:00:50.105Z,4.40
2019-04-11T06:03:17.561Z,4.50
2019-04-11T06:05:49.826Z,4.50
2019-04-11T06:08:22.645Z,4.50
2019-04-11T06:11:05.929Z,4.50
2019-04-11T06:13:44.689Z,4.50
2019-04-11T06:16:12.544Z,4.60
2019-04-11T06:21:26.959Z,4.70
2019-04-11T06:23:55.911Z,4.80
2019-04-11T06:26:35.711Z,4.80
2019-04-11T06:29:24.983Z,4.80
2019-04-11T06:31:50.226Z,4.80
2019-04-11T06:34:17.481Z,4.90
2019-04-11T06:36:51.616Z,4.90
2019-04-11T06:39:27.423Z,5.00
2019-04-11T06:41:58.977Z,5.00
2019-04-11T06:44:28.008Z,5.10
2019-04-11T06:47:05.470Z,5.10
2019-04-11T06:49:39.559Z,5.20
2019-04-11T06:52:10.733Z,5.30
2019-04-11T06:54:39.259Z,5.30
2019-04-11T06:57:07.689Z,5.30
2019-04-11T06:59:38.699Z,5.40
2019-04-11T07:02:11.571Z,5.40
2019-04-11T07:04:37.770Z,5.50
2019-04-11T07:07:06.521Z,5.60
2019-04-11T07:09:35.015Z,5.60
2019-04-11T07:12:13.311Z,5.70
2019-04-11T07:14:50.784Z,5.80
2019-04-11T07:17:36.903Z,5.80
2019-04-11T07:23:24.326Z,5.90
2019-04-11T07:25:53.805Z,6.00
2019-04-11T07:28:22.984Z,6.10
2019-04-11T07:31:08.898Z,6.20
2019-04-11T07:33:43.146Z,6.30
2019-04-11T07:36:27.670Z,6.40
2019-04-11T07:38:58.909Z,6.40
2019-04-11T07:41:35.968Z,6.50
2019-04-11T07:44:04.212Z,6.50
2019-04-11T07:46:38.671Z,6.60
2019-04-11T07:49:05.956Z,6.70
2019-04-11T07:51:32.328Z,6.80
2019-04-11T07:53:58.432Z,6.80
2019-04-11T07:56:29.524Z,6.90
2019-04-11T07:58:58.573Z,6.90
2019-04-11T08:01:29.743Z,7.10
2019-04-11T08:04:15.743Z,7.10
2019-04-11T08:06:52.599Z,7.20
2019-04-11T08:09:20.605Z,7.30
2019-04-11T08:11:49.817Z,7.30
2019-04-11T08:14:21.399Z,7.40
2019-04-11T08:17:07.128Z,7.50
2019-04-11T08:19:41.278Z,7.60
2019-04-11T08:24:58.853Z,7.70
2019-04-11T08:27:27.484Z,7.80
2019-04-11T08:29:55.762Z,8.00
2019-04-11T08:32:47.109Z,8.20
2019-04-11T08:35:30.675Z,8.40
2019-04-11T08:38:10.141Z,8.50
2019-04-11T08:40:47.221Z,8.70
2019-04-11T08:43:21.355Z,8.80
2019-04-11T08:45:50.569Z,9.00
2019-04-11T08:48:17.389Z,9.20
2019-04-11T08:50:45.386Z,9.30
2019-04-11T08:53:16.321Z,9.40
2019-04-11T08:55:51.911Z,9.50
2019-04-11T08:58:14.495Z,9.60
2019-04-11T09:00:51.160Z,9.80
2019-04-11T09:03:19.699Z,9.90
2019-04-11T09:06:04.355Z,10.10
2019-04-11T09:08:49.098Z,10.20
2019-04-11T09:11:22.959Z,10.30
2019-04-11T09:14:08.162Z,10.40
2019-04-11T09:16:48.435Z,10.50
2019-04-11T09:19:33.249Z,10.50
2019-04-11T09:22:10.953Z,10.60
2019-04-11T09:24:39.398Z,10.70
2019-04-11T09:27:24.786Z,10.90
2019-04-11T09:30:02.596Z,11.00
2019-04-11T09:32:48.696Z,11.10
2019-04-11T09:35:26.952Z,11.10
2019-04-11T09:37:54.177Z,11.20
2019-04-11T09:40:41.668Z,11.30
2019-04-11T09:43:15.881Z,11.40
2019-04-11T09:45:57.602Z,11.50
2019-04-11T09:48:44.704Z,11.50
2019-04-11T09:51:29.744Z,11.60
2019-04-11T09:54:03.645Z,11.70
2019-04-11T09:56:37.876Z,11.80
2019-04-11T09:59:16.396Z,11.70
2019-04-11T10:02:02.467Z,11.80
2019-04-11T10:04:31.858Z,11.90
2019-04-11T10:07:03.436Z,12.00
2019-04-11T10:09:32.363Z,12.10
2019-04-11T10:12:17.984Z,12.10
2019-04-11T10:14:46.130Z,12.30
2019-04-11T10:17:31.754Z,12.30
2019-04-11T10:20:00.375Z,12.40
2019-04-11T10:22:32.114Z,12.50
2019-04-11T10:25:01.010Z,12.60
2019-04-11T10:27:33.012Z,12.60
2019-04-11T10:30:17.653Z,12.50
2019-04-11T10:32:45.672Z,12.70
2019-04-11T10:35:30.841Z,12.90
2019-04-11T10:37:58.222Z,13.20
2019-04-11T10:40:36.394Z,13.40
2019-04-11T10:43:02.661Z,13.50
2019-04-11T10:45:42.774Z,13.50
2019-04-11T10:48:09.603Z,13.50
2019-04-11T10:50:54.289Z,13.60
2019-04-11T10:53:20.403Z,13.70
2019-04-11T10:55:49.523Z,13.70
2019-04-11T10:58:18.439Z,13.90
2019-04-11T11:00:59.772Z,13.90
2019-04-11T11:03:30.725Z,13.80
2019-04-11T11:05:59.688Z,13.90
2019-04-11T11:08:29.054Z,14.00
2019-04-11T11:11:00.295Z,14.10
2019-04-11T11:13:45.796Z,14.30
2019-04-11T11:16:12.427Z,14.50
2019-04-11T11:19:24.559Z,14.70
2019-04-11T11:21:27.552Z,14.80
2019-04-11T11:24:00.910Z,15.00
2019-04-11T11:26:29.417Z,15.00
2019-04-11T11:29:15.237Z,15.20
2019-04-11T11:31:49.192Z,15.50
2019-04-11T11:34:21.616Z,15.90
2019-04-11T11:36:53.069Z,16.10
2019-04-11T11:39:26.907Z,16.20
2019-04-11T11:42:10.380Z,16.20
2019-04-11T11:44:44.747Z,15.80
2019-04-11T11:47:19.597Z,15.10
2019-04-11T11:49:55.645Z,14.70
2019-04-11T11:52:34.559Z,14.40
2019-04-11T11:55:00.604Z,14.40
2019-04-11T11:57:28.866Z,14.50
2019-04-11T11:59:57.031Z,14.70
2019-04-11T12:02:34.830Z,14.80
2019-04-11T12:05:12.522Z,14.80
2019-04-11T12:07:45.178Z,15.10
2019-04-11T12:10:32.353Z,15.50
2019-04-11T12:13:12.588Z,15.70
2019-04-11T12:15:57.365Z,15.50
2019-04-11T12:18:48.122Z,15.50
2019-04-11T12:21:23.611Z,15.40
2019-04-11T12:24:02.579Z,15.60
2019-04-11T12:26:28.794Z,16.00
2019-04-11T12:28:54.998Z,16.40
2019-04-11T12:31:32.114Z,16.60
2019-04-11T12:33:59.765Z,16.80
2019-04-11T12:36:31.439Z,16.90
2019-04-11T12:39:16.668Z,17.00
2019-04-11T12:41:59.945Z,17.20
2019-04-11T12:47:20.037Z,17.40
2019-04-11T12:49:53.186Z,17.30
2019-04-11T12:52:29.946Z,17.10
2019-04-11T12:54:57.939Z,17.20
2019-04-11T12:57:35.098Z,17.30
2019-04-11T13:00:18.292Z,17.40
2019-04-11T13:03:03.334Z,17.70
2019-04-11T13:05:34.647Z,17.90
2019-04-11T13:08:20.071Z,17.80
2019-04-11T13:10:47.379Z,17.50
2019-04-11T13:13:24.368Z,17.80
2019-04-11T13:15:55.530Z,18.10
2019-04-11T13:18:40.257Z,18.10
2019-04-11T13:21:17.054Z,18.00
2019-04-11T13:23:45.050Z,18.00
2019-04-11T13:26:29.863Z,17.90
2019-04-11T13:29:09.673Z,17.90
2019-04-11T13:31:46.674Z,17.90
2019-04-11T13:34:14.666Z,17.90
2019-04-11T13:36:42.705Z,17.90
2019-04-11T13:39:08.891Z,17.60
2019-04-11T13:41:36.913Z,17.70
2019-04-11T13:44:05.114Z,18.10
2019-04-11T13:46:36.026Z,18.40
2019-04-11T13:49:09.957Z,18.60
2019-04-11T13:51:54.618Z,19.00
2019-04-11T13:54:31.625Z,19.20
2019-04-11T13:56:59.630Z,19.30
2019-04-11T13:59:36.564Z,19.00
2019-04-11T14:02:12.552Z,18.80
2019-04-11T14:04:49.406Z,18.10
2019-04-11T14:07:17.532Z,17.50
2019-04-11T14:09:45.628Z,17.60
2019-04-11T14:12:12.845Z,17.90
2019-04-11T14:14:39.231Z,18.20
2019-04-11T14:17:07.434Z,18.30
2019-04-11T14:19:44.614Z,18.20
2019-04-11T14:22:13.758Z,18.20
2019-04-11T14:24:44.934Z,18.40
2019-04-11T14:27:24.884Z,18.50
2019-04-11T14:29:52.909Z,18.60
2019-04-11T14:32:24.180Z,18.40
2019-04-11T14:34:52.381Z,18.40
2019-04-11T14:37:23.292Z,18.70
2019-04-11T14:39:51.301Z,18.50
2019-04-11T14:42:22.303Z,17.90
2019-04-11T14:44:50.438Z,17.60
2019-04-11T14:47:27.193Z,17.60
2019-04-11T14:49:55.185Z,17.70
2019-04-11T14:52:39.866Z,17.80
2019-04-11T14:55:08.592Z,18.00
2019-04-11T14:57:38.802Z,18.10
2019-04-11T15:00:10.607Z,17.80
2019-04-11T15:02:47.336Z,17.50
2019-04-11T15:05:15.542Z,17.30
2019-04-11T15:07:43.716Z,17.00
2019-04-11T15:10:28.329Z,17.00
2019-04-11T15:12:56.045Z,17.10
2019-04-11T15:15:41.002Z,17.40
2019-04-11T15:18:07.138Z,17.50
2019-04-11T15:20:55.274Z,17.40
2019-04-11T15:23:26.153Z,17.30
2019-04-11T15:25:56.784Z,17.30
2019-04-11T15:28:24.775Z,17.60
2019-04-11T15:31:09.366Z,17.70
2019-04-11T15:33:53.859Z,17.50
2019-04-11T15:36:27.487Z,17.40
2019-04-11T15:38:57.138Z,17.60
2019-04-11T15:41:23.247Z,17.40
2019-04-11T15:44:07.756Z,17.10
2019-04-11T15:46:35.802Z,16.70
2019-04-11T15:49:29.560Z,16.40
2019-04-11T15:51:50.790Z,16.50
2019-04-11T15:54:18.898Z,16.60
2019-04-11T15:56:52.691Z,16.80
2019-04-11T15:59:38.887Z,16.80
2019-04-11T16:02:16.271Z,16.60
2019-04-11T16:04:47.074Z,16.00
2019-04-11T16:07:15.192Z,15.70
2019-04-11T16:09:49.190Z,15.60
2019-04-11T16:12:26.176Z,15.80
2019-04-11T16:15:09.365Z,15.80
2019-04-11T16:17:37.523Z,15.60
2019-04-11T16:20:05.086Z,15.40
2019-04-11T16:22:49.994Z,15.30
2019-04-11T16:25:20.340Z,15.20
2019-04-11T16:27:57.251Z,15.10
2019-04-11T16:30:23.979Z,15.20
2019-04-11T16:32:51.970Z,15.20
2019-04-11T16:35:36.542Z,15.30
2019-04-11T16:38:18.746Z,15.30
2019-04-11T16:40:50.941Z,15.30
2019-04-11T16:43:17.517Z,15.30
2019-04-11T16:45:54.607Z,15.20
2019-04-11T16:48:19.471Z,15.20
2019-04-11T16:50:45.731Z,15.10
2019-04-11T16:53:11.855Z,15.00
2019-04-11T16:55:42.105Z,14.90
2019-04-11T16:58:05.995Z,14.80
2019-04-11T17:00:33.031Z,14.70
2019-04-11T17:02:59.566Z,14.50
2019-04-11T17:05:26.852Z,14.30
2019-04-11T17:08:00.796Z,14.00
2019-04-11T17:10:28.796Z,13.70
2019-04-11T17:12:56.049Z,13.50
2019-04-11T17:15:22.911Z,13.30
2019-04-11T17:17:49.127Z,13.10
2019-04-11T17:20:15.234Z,13.00
2019-04-11T17:22:41.406Z,12.90
2019-04-11T17:25:07.681Z,12.70
2019-04-11T17:27:33.791Z,12.60
2019-04-11T17:29:59.925Z,12.60
2019-04-11T17:32:26.637Z,12.60
2019-04-11T17:34:53.057Z,12.50
2019-04-11T17:37:19.303Z,12.50
2019-04-11T17:39:45.407Z,12.40
2019-04-11T17:42:13.339Z,12.40
2019-04-11T17:44:39.634Z,12.40
2019-04-11T17:47:05.757Z,12.30
2019-04-11T17:49:31.968Z,12.20
2019-04-11T17:51:58.258Z,12.10
2019-04-11T17:54:24.978Z,12.10
2019-04-11T17:56:54.579Z,12.00
2019-04-11T17:59:19.824Z,11.90
2019-04-11T18:01:45.914Z,11.90
2019-04-11T18:04:13.526Z,11.80
2019-04-11T18:06:40.092Z,11.70
2019-04-11T18:09:09.069Z,11.70
2019-04-11T18:11:35.182Z,11.70
2019-04-11T18:14:01.556Z,11.70
2019-04-11T18:16:28.820Z,11.70
2019-04-11T18:18:56.235Z,11.70
2019-04-11T18:21:22.359Z,11.70
2019-04-11T18:23:50.110Z,11.70
2019-04-11T18:26:16.505Z,11.70
2019-04-11T18:28:42.590Z,11.60
2019-04-11T18:31:08.807Z,11.70
2019-04-11T18:33:34.935Z,11.60
2019-04-11T18:36:02.393Z,11.60
2019-04-11T18:38:31.833Z,11.50
2019-04-11T18:40:57.066Z,11.40
2019-04-11T18:43:25.451Z,11.40
2019-04-11T18:45:51.243Z,11.40
2019-04-11T18:48:17.512Z,11.40
2019-04-11T18:50:43.720Z,11.40
2019-04-11T18:53:09.839Z,11.30
2019-04-11T18:55:35.942Z,11.40
2019-04-11T18:58:04.612Z,11.30
2019-04-11T19:00:30.476Z,11.30
2019-04-11T19:02:56.859Z,11.30
2019-04-11T19:05:28.634Z,11.30
2019-04-11T19:07:51.254Z,11.30
2019-04-11T19:10:17.876Z,11.30
2019-04-11T19:12:46.310Z,11.30
2019-04-11T19:15:13.785Z,11.30
2019-04-11T19:17:41.497Z,11.20
2019-04-11T19:20:10.319Z,11.20
2019-04-11T19:22:38.261Z,11.10
2019-04-11T19:25:05.055Z,11.10
2019-04-11T19:27:31.247Z,11.00
2019-04-11T19:29:57.367Z,11.00
2019-04-11T19:32:23.979Z,10.90
2019-04-11T19:34:50.219Z,10.90
2019-04-11T19:37:16.335Z,10.70
2019-04-11T19:39:45.182Z,10.60
2019-04-11T19:42:10.568Z,10.50
2019-04-11T19:44:36.666Z,10.30
2019-04-11T19:47:03.180Z,10.20
2019-04-11T19:49:49.144Z,10.10
2019-04-11T19:52:15.275Z,10.10
2019-04-11T19:54:41.369Z,10.00
2019-04-11T19:57:07.492Z,9.90
2019-04-11T19:59:33.681Z,9.80
2019-04-11T20:02:23.366Z,9.80
2019-04-11T20:04:47.696Z,9.70
2019-04-11T20:07:13.910Z,9.70
2019-04-11T20:09:40.013Z,9.60
2019-04-11T20:12:06.137Z,9.60
2019-04-11T20:14:34.850Z,9.60
2019-04-11T20:17:00.355Z,9.40
2019-04-11T20:19:27.460Z,9.40
2019-04-11T20:21:54.535Z,9.40
2019-04-11T20:24:20.740Z,9.30
2019-04-11T20:26:49.751Z,9.30
2019-04-11T20:29:14.944Z,9.30
2019-04-11T20:31:41.039Z,9.20
2019-04-11T20:34:08.097Z,9.20
2019-04-11T20:36:34.436Z,9.20
2019-04-11T20:39:00.571Z,9.10
2019-04-11T20:41:26.811Z,9.10
2019-04-11T20:43:56.054Z,9.10
2019-04-11T20:46:21.030Z,9.10
2019-04-11T20:48:47.160Z,9.00
2019-04-11T20:51:13.696Z,9.00
2019-04-11T20:53:39.911Z,9.00
2019-04-11T20:56:09.739Z,9.00
2019-04-11T20:58:34.043Z,9.00
2019-04-11T21:01:00.154Z,9.00
2019-04-11T21:03:29.849Z,9.00
2019-04-11T21:05:54.370Z,9.00
2019-04-11T21:08:20.486Z,9.00
2019-04-11T21:10:46.802Z,9.00
2019-04-11T21:13:12.913Z,9.00
2019-04-11T21:15:39.022Z,9.00
2019-04-11T21:18:05.244Z,9.00
2019-04-11T21:20:31.365Z,9.00
2019-04-11T21:22:57.455Z,9.00
2019-04-11T21:25:26.159Z,9.00
2019-04-11T21:27:51.769Z,9.00
2019-04-11T21:30:17.971Z,9.00
2019-04-11T21:32:44.084Z,9.00
2019-04-11T21:35:10.478Z,9.00
2019-04-11T21:37:36.889Z,9.10
2019-04-11T21:40:05.010Z,9.10
2019-04-11T21:42:31.216Z,9.10
2019-04-11T21:44:57.359Z,9.00
2019-04-11T21:47:23.679Z,9.00
2019-04-11T21:49:49.785Z,9.00
2019-04-11T21:52:16.008Z,9.00
2019-04-11T21:54:45.081Z,9.00
2019-04-11T21:57:10.197Z,9.00
2019-04-11T21:59:36.334Z,9.00
2019-04-11T22:02:05.359Z,9.10
2019-04-11T22:04:31.673Z,9.10
2019-04-11T22:07:00.685Z,9.10
2019-04-11T22:09:26.310Z,9.10
2019-04-11T22:11:52.643Z,9.10
2019-04-11T22:14:18.762Z,9.10
2019-04-11T22:16:45.346Z,9.00
2019-04-11T22:19:13.915Z,9.00
2019-04-11T22:21:39.590Z,9.00
2019-04-11T22:24:05.685Z,9.00
2019-04-11T22:26:31.802Z,9.00
2019-04-11T22:28:57.932Z,9.00
2019-04-11T22:31:25.063Z,9.00
2019-04-11T22:34:10.184Z,9.00
2019-04-11T22:36:36.295Z,9.00
2019-04-11T22:39:07.144Z,9.00
2019-04-11T22:41:33.340Z,8.90
2019-04-11T22:43:59.455Z,8.90
2019-04-11T22:46:25.581Z,8.90
2019-04-11T22:48:51.692Z,8.90
2019-04-11T22:51:18.007Z,8.90
2019-04-11T22:53:44.117Z,8.90
2019-04-11T22:56:11.727Z,8.90
2019-04-11T22:58:38.235Z,8.90
2019-04-11T23:01:04.346Z,8.80
2019-04-11T23:03:32.371Z,8.80
2019-04-11T23:05:58.452Z,8.70
2019-04-11T23:08:24.554Z,8.70
2019-04-11T23:10:50.654Z,8.80
2019-04-11T23:13:16.786Z,8.80
2019-04-11T23:15:43.626Z,8.80
2019-04-11T23:18:11.896Z,8.80
2019-04-11T23:20:38.499Z,8.80
2019-04-11T23:23:04.592Z,8.80
2019-04-11T23:25:30.710Z,8.80
2019-04-11T23:27:56.827Z,8.80
2019-04-11T23:30:22.922Z,8.80
2019-04-11T23:32:51.689Z,8.80
2019-04-11T23:35:17.047Z,8.80
2019-04-11T23:37:52.138Z,8.80
2019-04-11T23:40:20.994Z,8.80
2019-04-11T23:42:47.797Z,8.80
2019-04-11T23:45:18.819Z,8.80
2019-04-11T23:47:45.563Z,8.80
2019-04-11T23:50:12.071Z,8.70
2019-04-11T23:52:38.168Z,8.70
2019-04-11T23:55:04.878Z,8.60
2019-04-11T23:57:31.260Z,8.60
2019-04-11T23:59:59.804Z,8.60
